sensor_id;sensor_type;location;lat;lon;timestamp;P1;durP1;ratioP1;P2;durP2;ratioP2
30934;SDS011;51033;42.648;23.292;2022-08-27T00:01:55;5.50;;;1.58;;
30934;SDS011;51033;42.648;23.292;2022-08-27T00:04:20;4.97;;;2.10;;
30934;SDS011;51033;42.648;23.292;2022-08-27T00:06:46;2.85;;;1.60;;
30934;SDS011;51033;42.648;23.292;2022-08-27T00:09:12;4.80;;;2.35;;
30934;SDS011;51033;42.648;23.292;2022-08-27T00:11:38;4.57;;;1.85;;
30934;SDS011;51033;42.648;23.292;2022-08-27T00:14:03;4.97;;;2.08;;
30934;SDS011;51033;42.648;23.292;2022-08-27T00:16:29;3.78;;;1.75;;
30934;SDS011;51033;42.648;23.292;2022-08-27T00:18:55;6.82;;;2.00;;
30934;SDS011;51033;42.648;23.292;2022-08-27T00:21:20;3.55;;;2.35;;
30934;SDS011;51033;42.648;23.292;2022-08-27T00:23:47;5.65;;;2.15;;
30934;SDS011;51033;42.648;23.292;2022-08-27T00:26:12;2.92;;;2.22;;
30934;SDS011;51033;42.648;23.292;2022-08-27T00:28:39;6.47;;;2.47;;
30934;SDS011;51033;42.648;23.292;2022-08-27T00:31:06;5.68;;;1.85;;
30934;SDS011;51033;42.648;23.292;2022-08-27T00:33:31;7.93;;;2.83;;
30934;SDS011;51033;42.648;23.292;2022-08-27T00:35:57;4.53;;;2.20;;
30934;SDS011;51033;42.648;23.292;2022-08-27T00:38:23;6.55;;;1.83;;
30934;SDS011;51033;42.648;23.292;2022-08-27T00:40:49;6.82;;;2.10;;
30934;SDS011;51033;42.648;23.292;2022-08-27T00:43:25;3.40;;;2.05;;
30934;SDS011;51033;42.648;23.292;2022-08-27T00:45:57;5.63;;;2.75;;
30934;SDS011;51033;42.648;23.292;2022-08-27T00:48:29;2.45;;;1.98;;
30934;SDS011;51033;42.648;23.292;2022-08-27T00:50:59;4.90;;;2.08;;
30934;SDS011;51033;42.648;23.292;2022-08-27T00:53:26;4.78;;;2.25;;
30934;SDS011;51033;42.648;23.292;2022-08-27T00:55:55;2.92;;;2.08;;
30934;SDS011;51033;42.648;23.292;2022-08-27T00:58:27;2.50;;;1.92;;
30934;SDS011;51033;42.648;23.292;2022-08-27T01:00:59;7.07;;;1.88;;
30934;SDS011;51033;42.648;23.292;2022-08-27T01:03:26;2.65;;;1.80;;
30934;SDS011;51033;42.648;23.292;2022-08-27T01:05:52;3.10;;;2.20;;
30934;SDS011;51033;42.648;23.292;2022-08-27T01:08:23;11.38;;;2.53;;
30934;SDS011;51033;42.648;23.292;2022-08-27T01:10:53;4.35;;;2.45;;
30934;SDS011;51033;42.648;23.292;2022-08-27T01:13:22;7.57;;;2.30;;
30934;SDS011;51033;42.648;23.292;2022-08-27T01:15:50;4.60;;;2.30;;
30934;SDS011;51033;42.648;23.292;2022-08-27T01:18:17;7.70;;;1.85;;
30934;SDS011;51033;42.648;23.292;2022-08-27T01:26:04;5.90;;;2.38;;
30934;SDS011;51033;42.648;23.292;2022-08-27T01:28:33;4.63;;;2.25;;
30934;SDS011;51033;42.648;23.292;2022-08-27T01:31:02;6.47;;;2.28;;
30934;SDS011;51033;42.648;23.292;2022-08-27T01:33:29;5.97;;;2.05;;
30934;SDS011;51033;42.648;23.292;2022-08-27T01:35:55;6.25;;;2.42;;
30934;SDS011;51033;42.648;23.292;2022-08-27T01:38:20;4.55;;;2.25;;
30934;SDS011;51033;42.648;23.292;2022-08-27T01:40:47;5.90;;;2.75;;
30934;SDS011;51033;42.648;23.292;2022-08-27T01:43:12;3.80;;;2.42;;
30934;SDS011;51033;42.648;23.292;2022-08-27T01:45:39;7.68;;;3.08;;
30934;SDS011;51033;42.648;23.292;2022-08-27T01:48:09;6.22;;;2.25;;
30934;SDS011;51033;42.648;23.292;2022-08-27T01:50:36;4.03;;;2.08;;
30934;SDS011;51033;42.648;23.292;2022-08-27T01:53:04;4.57;;;2.90;;
30934;SDS011;51033;42.648;23.292;2022-08-27T01:55:31;6.28;;;2.33;;
30934;SDS011;51033;42.648;23.292;2022-08-27T01:57:57;4.93;;;3.08;;
30934;SDS011;51033;42.648;23.292;2022-08-27T02:00:24;11.30;;;2.60;;
30934;SDS011;51033;42.648;23.292;2022-08-27T02:02:52;6.55;;;2.47;;
30934;SDS011;51033;42.648;23.292;2022-08-27T02:05:17;6.28;;;3.45;;
30934;SDS011;51033;42.648;23.292;2022-08-27T02:07:43;4.32;;;2.47;;
30934;SDS011;51033;42.648;23.292;2022-08-27T02:10:10;11.57;;;2.60;;
30934;SDS011;51033;42.648;23.292;2022-08-27T02:12:39;8.27;;;2.40;;
30934;SDS011;51033;42.648;23.292;2022-08-27T02:15:04;3.30;;;2.53;;
30934;SDS011;51033;42.648;23.292;2022-08-27T02:17:31;6.57;;;3.33;;
30934;SDS011;51033;42.648;23.292;2022-08-27T02:19:56;13.27;;;2.65;;
30934;SDS011;51033;42.648;23.292;2022-08-27T02:22:23;4.28;;;2.30;;
30934;SDS011;51033;42.648;23.292;2022-08-27T02:24:48;4.97;;;2.10;;
30934;SDS011;51033;42.648;23.292;2022-08-27T02:27:14;3.13;;;1.95;;
30934;SDS011;51033;42.648;23.292;2022-08-27T02:29:39;3.80;;;2.53;;
30934;SDS011;51033;42.648;23.292;2022-08-27T02:32:05;4.65;;;2.33;;
30934;SDS011;51033;42.648;23.292;2022-08-27T02:34:31;8.10;;;2.25;;
30934;SDS011;51033;42.648;23.292;2022-08-27T02:36:57;3.75;;;2.33;;
30934;SDS011;51033;42.648;23.292;2022-08-27T02:39:22;5.45;;;2.40;;
30934;SDS011;51033;42.648;23.292;2022-08-27T02:41:48;3.97;;;2.55;;
30934;SDS011;51033;42.648;23.292;2022-08-27T02:44:13;5.30;;;2.58;;
30934;SDS011;51033;42.648;23.292;2022-08-27T02:46:39;4.38;;;2.20;;
30934;SDS011;51033;42.648;23.292;2022-08-27T02:49:05;7.35;;;4.15;;
30934;SDS011;51033;42.648;23.292;2022-08-27T02:51:32;7.15;;;2.75;;
30934;SDS011;51033;42.648;23.292;2022-08-27T02:53:57;10.05;;;3.70;;
30934;SDS011;51033;42.648;23.292;2022-08-27T02:56:24;6.30;;;2.70;;
30934;SDS011;51033;42.648;23.292;2022-08-27T02:58:50;5.18;;;2.50;;
30934;SDS011;51033;42.648;23.292;2022-08-27T03:01:15;4.60;;;2.63;;
30934;SDS011;51033;42.648;23.292;2022-08-27T03:03:41;5.95;;;2.47;;
30934;SDS011;51033;42.648;23.292;2022-08-27T03:06:07;3.95;;;2.80;;
30934;SDS011;51033;42.648;23.292;2022-08-27T03:08:32;8.65;;;2.50;;
30934;SDS011;51033;42.648;23.292;2022-08-27T03:10:58;2.80;;;1.88;;
30934;SDS011;51033;42.648;23.292;2022-08-27T03:13:23;4.75;;;2.85;;
30934;SDS011;51033;42.648;23.292;2022-08-27T03:15:50;6.43;;;2.83;;
30934;SDS011;51033;42.648;23.292;2022-08-27T03:18:16;8.38;;;2.53;;
30934;SDS011;51033;42.648;23.292;2022-08-27T03:20:49;7.78;;;2.72;;
30934;SDS011;51033;42.648;23.292;2022-08-27T03:23:17;3.40;;;2.50;;
30934;SDS011;51033;42.648;23.292;2022-08-27T03:25:47;4.20;;;2.50;;
30934;SDS011;51033;42.648;23.292;2022-08-27T03:28:16;10.88;;;3.17;;
30934;SDS011;51033;42.648;23.292;2022-08-27T03:30:46;5.30;;;3.10;;
30934;SDS011;51033;42.648;23.292;2022-08-27T03:33:16;3.70;;;2.20;;
30934;SDS011;51033;42.648;23.292;2022-08-27T03:35:43;7.32;;;2.60;;
30934;SDS011;51033;42.648;23.292;2022-08-27T03:38:09;2.85;;;2.30;;
30934;SDS011;51033;42.648;23.292;2022-08-27T03:40:35;7.20;;;2.00;;
30934;SDS011;51033;42.648;23.292;2022-08-27T03:43:00;5.65;;;2.50;;
30934;SDS011;51033;42.648;23.292;2022-08-27T03:45:26;5.75;;;2.42;;
30934;SDS011;51033;42.648;23.292;2022-08-27T03:47:51;4.50;;;2.58;;
30934;SDS011;51033;42.648;23.292;2022-08-27T03:50:17;5.18;;;2.55;;
30934;SDS011;51033;42.648;23.292;2022-08-27T03:52:42;7.53;;;2.45;;
30934;SDS011;51033;42.648;23.292;2022-08-27T03:55:08;8.55;;;3.22;;
30934;SDS011;51033;42.648;23.292;2022-08-27T03:57:34;3.30;;;1.70;;
30934;SDS011;51033;42.648;23.292;2022-08-27T04:00:00;5.45;;;2.17;;
30934;SDS011;51033;42.648;23.292;2022-08-27T04:02:26;4.60;;;2.20;;
30934;SDS011;51033;42.648;23.292;2022-08-27T04:04:52;2.90;;;2.30;;
30934;SDS011;51033;42.648;23.292;2022-08-27T04:07:17;3.60;;;2.10;;
30934;SDS011;51033;42.648;23.292;2022-08-27T04:09:43;8.05;;;2.03;;
30934;SDS011;51033;42.648;23.292;2022-08-27T04:12:08;4.95;;;1.88;;
30934;SDS011;51033;42.648;23.292;2022-08-27T04:14:35;3.58;;;1.80;;
30934;SDS011;51033;42.648;23.292;2022-08-27T04:17:02;7.10;;;2.47;;
30934;SDS011;51033;42.648;23.292;2022-08-27T04:19:28;7.50;;;2.75;;
30934;SDS011;51033;42.648;23.292;2022-08-27T04:22:05;3.75;;;2.08;;
30934;SDS011;51033;42.648;23.292;2022-08-27T04:24:33;6.40;;;2.10;;
30934;SDS011;51033;42.648;23.292;2022-08-27T04:27:00;4.55;;;2.20;;
30934;SDS011;51033;42.648;23.292;2022-08-27T04:29:26;6.22;;;2.55;;
30934;SDS011;51033;42.648;23.292;2022-08-27T04:31:52;4.03;;;2.55;;
30934;SDS011;51033;42.648;23.292;2022-08-27T04:34:18;8.48;;;2.17;;
30934;SDS011;51033;42.648;23.292;2022-08-27T04:36:44;8.85;;;2.50;;
30934;SDS011;51033;42.648;23.292;2022-08-27T04:39:10;5.45;;;2.60;;
30934;SDS011;51033;42.648;23.292;2022-08-27T04:41:36;3.80;;;2.30;;
30934;SDS011;51033;42.648;23.292;2022-08-27T04:44:04;5.70;;;3.30;;
30934;SDS011;51033;42.648;23.292;2022-08-27T04:46:32;7.18;;;2.70;;
30934;SDS011;51033;42.648;23.292;2022-08-27T04:49:01;5.03;;;3.10;;
30934;SDS011;51033;42.648;23.292;2022-08-27T04:51:28;6.00;;;3.63;;
30934;SDS011;51033;42.648;23.292;2022-08-27T04:53:54;6.57;;;3.58;;
30934;SDS011;51033;42.648;23.292;2022-08-27T04:56:21;5.57;;;3.70;;
30934;SDS011;51033;42.648;23.292;2022-08-27T04:58:48;7.38;;;3.55;;
30934;SDS011;51033;42.648;23.292;2022-08-27T05:01:18;6.00;;;2.97;;
30934;SDS011;51033;42.648;23.292;2022-08-27T05:03:48;5.00;;;3.87;;
30934;SDS011;51033;42.648;23.292;2022-08-27T05:06:14;7.32;;;3.55;;
30934;SDS011;51033;42.648;23.292;2022-08-27T05:08:40;6.65;;;4.07;;
30934;SDS011;51033;42.648;23.292;2022-08-27T05:11:06;6.40;;;3.53;;
30934;SDS011;51033;42.648;23.292;2022-08-27T05:13:34;11.52;;;4.75;;
30934;SDS011;51033;42.648;23.292;2022-08-27T05:16:01;12.50;;;4.32;;
30934;SDS011;51033;42.648;23.292;2022-08-27T05:18:28;10.35;;;3.70;;
30934;SDS011;51033;42.648;23.292;2022-08-27T05:20:54;5.95;;;4.93;;
30934;SDS011;51033;42.648;23.292;2022-08-27T05:23:21;8.00;;;4.28;;
30934;SDS011;51033;42.648;23.292;2022-08-27T05:25:48;8.00;;;4.47;;
30934;SDS011;51033;42.648;23.292;2022-08-27T05:28:16;7.28;;;4.03;;
30934;SDS011;51033;42.648;23.292;2022-08-27T05:30:46;5.78;;;4.03;;
30934;SDS011;51033;42.648;23.292;2022-08-27T05:33:13;7.72;;;4.22;;
30934;SDS011;51033;42.648;23.292;2022-08-27T05:35:47;7.43;;;4.22;;
30934;SDS011;51033;42.648;23.292;2022-08-27T05:38:16;8.70;;;4.30;;
30934;SDS011;51033;42.648;23.292;2022-08-27T05:40:43;9.85;;;4.22;;
30934;SDS011;51033;42.648;23.292;2022-08-27T05:43:09;13.52;;;4.78;;
30934;SDS011;51033;42.648;23.292;2022-08-27T05:45:41;8.70;;;3.90;;
30934;SDS011;51033;42.648;23.292;2022-08-27T05:48:08;11.02;;;4.35;;
30934;SDS011;51033;42.648;23.292;2022-08-27T05:50:36;6.45;;;3.55;;
30934;SDS011;51033;42.648;23.292;2022-08-27T05:53:05;9.00;;;3.83;;
30934;SDS011;51033;42.648;23.292;2022-08-27T05:55:38;9.85;;;3.63;;
30934;SDS011;51033;42.648;23.292;2022-08-27T05:58:05;6.97;;;3.58;;
30934;SDS011;51033;42.648;23.292;2022-08-27T06:00:31;5.47;;;2.95;;
30934;SDS011;51033;42.648;23.292;2022-08-27T06:03:15;11.65;;;3.33;;
30934;SDS011;51033;42.648;23.292;2022-08-27T06:05:40;6.45;;;3.75;;
30934;SDS011;51033;42.648;23.292;2022-08-27T06:08:06;10.02;;;4.75;;
30934;SDS011;51033;42.648;23.292;2022-08-27T06:10:31;8.07;;;3.88;;
30934;SDS011;51033;42.648;23.292;2022-08-27T06:12:57;6.85;;;3.33;;
30934;SDS011;51033;42.648;23.292;2022-08-27T06:15:22;6.00;;;3.22;;
30934;SDS011;51033;42.648;23.292;2022-08-27T06:17:48;4.80;;;3.97;;
30934;SDS011;51033;42.648;23.292;2022-08-27T06:20:13;11.88;;;4.07;;
30934;SDS011;51033;42.648;23.292;2022-08-27T06:22:39;6.53;;;4.25;;
30934;SDS011;51033;42.648;23.292;2022-08-27T06:25:04;6.47;;;3.35;;
30934;SDS011;51033;42.648;23.292;2022-08-27T06:27:31;9.75;;;3.72;;
30934;SDS011;51033;42.648;23.292;2022-08-27T06:29:56;7.93;;;4.25;;
30934;SDS011;51033;42.648;23.292;2022-08-27T06:32:22;21.65;;;4.75;;
30934;SDS011;51033;42.648;23.292;2022-08-27T06:34:50;7.63;;;4.20;;
30934;SDS011;51033;42.648;23.292;2022-08-27T06:37:15;9.27;;;4.15;;
30934;SDS011;51033;42.648;23.292;2022-08-27T06:39:41;6.43;;;3.58;;
30934;SDS011;51033;42.648;23.292;2022-08-27T06:42:08;9.60;;;3.90;;
30934;SDS011;51033;42.648;23.292;2022-08-27T06:44:35;12.82;;;4.10;;
30934;SDS011;51033;42.648;23.292;2022-08-27T06:47:01;6.90;;;3.90;;
30934;SDS011;51033;42.648;23.292;2022-08-27T06:49:27;7.72;;;3.78;;
30934;SDS011;51033;42.648;23.292;2022-08-27T06:51:53;7.95;;;3.53;;
30934;SDS011;51033;42.648;23.292;2022-08-27T06:54:18;6.40;;;4.28;;
30934;SDS011;51033;42.648;23.292;2022-08-27T06:56:44;10.27;;;3.35;;
30934;SDS011;51033;42.648;23.292;2022-08-27T06:59:10;6.75;;;4.32;;
30934;SDS011;51033;42.648;23.292;2022-08-27T07:01:40;9.25;;;3.80;;
30934;SDS011;51033;42.648;23.292;2022-08-27T07:04:09;6.43;;;3.80;;
30934;SDS011;51033;42.648;23.292;2022-08-27T07:06:36;7.05;;;3.72;;
30934;SDS011;51033;42.648;23.292;2022-08-27T07:09:03;11.25;;;4.45;;
30934;SDS011;51033;42.648;23.292;2022-08-27T07:11:30;7.82;;;4.60;;
30934;SDS011;51033;42.648;23.292;2022-08-27T07:13:56;6.43;;;3.50;;
30934;SDS011;51033;42.648;23.292;2022-08-27T07:16:23;6.40;;;3.40;;
30934;SDS011;51033;42.648;23.292;2022-08-27T07:18:50;11.05;;;4.82;;
30934;SDS011;51033;42.648;23.292;2022-08-27T07:21:20;6.15;;;2.92;;
30934;SDS011;51033;42.648;23.292;2022-08-27T07:23:46;9.25;;;4.15;;
30934;SDS011;51033;42.648;23.292;2022-08-27T07:26:13;11.23;;;3.80;;
30934;SDS011;51033;42.648;23.292;2022-08-27T07:28:40;8.75;;;4.05;;
30934;SDS011;51033;42.648;23.292;2022-08-27T07:31:07;7.13;;;3.55;;
30934;SDS011;51033;42.648;23.292;2022-08-27T07:33:34;13.30;;;4.53;;
30934;SDS011;51033;42.648;23.292;2022-08-27T07:36:01;8.57;;;3.63;;
30934;SDS011;51033;42.648;23.292;2022-08-27T07:38:28;9.10;;;3.85;;
30934;SDS011;51033;42.648;23.292;2022-08-27T07:40:53;11.32;;;4.28;;
30934;SDS011;51033;42.648;23.292;2022-08-27T07:43:19;10.20;;;3.88;;
30934;SDS011;51033;42.648;23.292;2022-08-27T07:46:03;7.68;;;3.72;;
30934;SDS011;51033;42.648;23.292;2022-08-27T07:48:29;5.57;;;4.05;;
30934;SDS011;51033;42.648;23.292;2022-08-27T07:50:57;7.50;;;3.33;;
30934;SDS011;51033;42.648;23.292;2022-08-27T07:53:22;5.30;;;3.15;;
30934;SDS011;51033;42.648;23.292;2022-08-27T07:55:48;7.20;;;3.92;;
30934;SDS011;51033;42.648;23.292;2022-08-27T07:58:13;10.00;;;3.85;;
30934;SDS011;51033;42.648;23.292;2022-08-27T08:00:40;5.45;;;3.83;;
30934;SDS011;51033;42.648;23.292;2022-08-27T08:03:06;5.63;;;3.28;;
30934;SDS011;51033;42.648;23.292;2022-08-27T08:05:32;8.43;;;4.28;;
30934;SDS011;51033;42.648;23.292;2022-08-27T08:07:58;7.75;;;3.67;;
30934;SDS011;51033;42.648;23.292;2022-08-27T08:10:23;8.10;;;3.80;;
30934;SDS011;51033;42.648;23.292;2022-08-27T08:12:49;5.97;;;3.58;;
30934;SDS011;51033;42.648;23.292;2022-08-27T08:15:15;10.38;;;3.13;;
30934;SDS011;51033;42.648;23.292;2022-08-27T08:17:42;9.85;;;3.95;;
30934;SDS011;51033;42.648;23.292;2022-08-27T08:20:09;11.63;;;3.80;;
30934;SDS011;51033;42.648;23.292;2022-08-27T08:22:36;5.53;;;3.13;;
30934;SDS011;51033;42.648;23.292;2022-08-27T08:25:02;5.43;;;2.78;;
30934;SDS011;51033;42.648;23.292;2022-08-27T08:27:29;7.53;;;4.13;;
30934;SDS011;51033;42.648;23.292;2022-08-27T08:29:57;12.43;;;3.67;;
30934;SDS011;51033;42.648;23.292;2022-08-27T08:32:25;8.80;;;3.13;;
30934;SDS011;51033;42.648;23.292;2022-08-27T08:34:50;8.95;;;3.67;;
30934;SDS011;51033;42.648;23.292;2022-08-27T08:37:16;8.45;;;5.13;;
30934;SDS011;51033;42.648;23.292;2022-08-27T08:39:41;6.30;;;3.78;;
30934;SDS011;51033;42.648;23.292;2022-08-27T08:42:09;7.85;;;3.38;;
30934;SDS011;51033;42.648;23.292;2022-08-27T08:45:03;6.07;;;3.15;;
30934;SDS011;51033;42.648;23.292;2022-08-27T08:47:31;6.00;;;3.35;;
30934;SDS011;51033;42.648;23.292;2022-08-27T08:58:06;11.10;;;3.58;;
30934;SDS011;51033;42.648;23.292;2022-08-27T09:00:33;6.40;;;2.97;;
30934;SDS011;51033;42.648;23.292;2022-08-27T09:03:00;4.15;;;2.60;;
30934;SDS011;51033;42.648;23.292;2022-08-27T09:05:26;5.43;;;2.90;;
30934;SDS011;51033;42.648;23.292;2022-08-27T09:10:54;5.75;;;2.70;;
30934;SDS011;51033;42.648;23.292;2022-08-27T09:13:30;4.88;;;2.50;;
30934;SDS011;51033;42.648;23.292;2022-08-27T09:16:04;5.18;;;2.30;;
30934;SDS011;51033;42.648;23.292;2022-08-27T09:18:30;3.78;;;2.67;;
30934;SDS011;51033;42.648;23.292;2022-08-27T09:21:27;4.78;;;1.63;;
30934;SDS011;51033;42.648;23.292;2022-08-27T09:23:58;8.07;;;1.80;;
30934;SDS011;51033;42.648;23.292;2022-08-27T09:26:38;4.43;;;2.25;;
30934;SDS011;51033;42.648;23.292;2022-08-27T09:29:06;6.68;;;2.58;;
30934;SDS011;51033;42.648;23.292;2022-08-27T09:34:25;4.30;;;2.38;;
30934;SDS011;51033;42.648;23.292;2022-08-27T09:37:03;3.83;;;2.58;;
30934;SDS011;51033;42.648;23.292;2022-08-27T09:42:08;7.82;;;2.10;;
30934;SDS011;51033;42.648;23.292;2022-08-27T09:44:52;5.93;;;2.42;;
30934;SDS011;51033;42.648;23.292;2022-08-27T09:47:18;3.72;;;2.92;;
30934;SDS011;51033;42.648;23.292;2022-08-27T09:49:43;4.63;;;1.67;;
30934;SDS011;51033;42.648;23.292;2022-08-27T09:52:29;9.82;;;2.05;;
30934;SDS011;51033;42.648;23.292;2022-08-27T09:54:57;9.38;;;2.15;;
30934;SDS011;51033;42.648;23.292;2022-08-27T09:57:33;2.80;;;1.63;;
30934;SDS011;51033;42.648;23.292;2022-08-27T10:00:05;5.40;;;1.73;;
30934;SDS011;51033;42.648;23.292;2022-08-27T10:02:47;4.03;;;1.75;;
30934;SDS011;51033;42.648;23.292;2022-08-27T10:05:50;4.07;;;2.00;;
30934;SDS011;51033;42.648;23.292;2022-08-27T10:08:57;3.53;;;1.70;;
30934;SDS011;51033;42.648;23.292;2022-08-27T10:13:54;2.75;;;2.25;;
30934;SDS011;51033;42.648;23.292;2022-08-27T10:30:05;3.88;;;1.63;;
30934;SDS011;51033;42.648;23.292;2022-08-27T10:35:16;2.08;;;1.60;;
30934;SDS011;51033;42.648;23.292;2022-08-27T10:38:06;5.03;;;1.75;;
30934;SDS011;51033;42.648;23.292;2022-08-27T10:43:48;12.55;;;2.50;;
30934;SDS011;51033;42.648;23.292;2022-08-27T10:52:08;7.55;;;1.98;;
30934;SDS011;51033;42.648;23.292;2022-08-27T11:00:42;10.27;;;2.40;;
30934;SDS011;51033;42.648;23.292;2022-08-27T11:03:10;5.07;;;2.35;;
30934;SDS011;51033;42.648;23.292;2022-08-27T11:05:45;4.30;;;1.85;;
30934;SDS011;51033;42.648;23.292;2022-08-27T11:08:24;2.53;;;1.98;;
30934;SDS011;51033;42.648;23.292;2022-08-27T11:13:30;4.35;;;2.13;;
30934;SDS011;51033;42.648;23.292;2022-08-27T11:16:00;6.45;;;2.25;;
30934;SDS011;51033;42.648;23.292;2022-08-27T11:18:44;4.13;;;1.80;;
30934;SDS011;51033;42.648;23.292;2022-08-27T11:21:19;6.00;;;2.67;;
30934;SDS011;51033;42.648;23.292;2022-08-27T11:23:59;15.75;;;3.28;;
30934;SDS011;51033;42.648;23.292;2022-08-27T11:26:36;6.57;;;2.67;;
30934;SDS011;51033;42.648;23.292;2022-08-27T11:29:08;3.90;;;2.60;;
30934;SDS011;51033;42.648;23.292;2022-08-27T11:31:52;7.15;;;2.78;;
30934;SDS011;51033;42.648;23.292;2022-08-27T11:37:18;6.22;;;2.40;;
30934;SDS011;51033;42.648;23.292;2022-08-27T11:42:51;4.18;;;2.33;;
30934;SDS011;51033;42.648;23.292;2022-08-27T11:48:12;7.25;;;2.78;;
30934;SDS011;51033;42.648;23.292;2022-08-27T11:50:40;4.85;;;2.05;;
30934;SDS011;51033;42.648;23.292;2022-08-27T11:53:23;9.13;;;2.67;;
30934;SDS011;51033;42.648;23.292;2022-08-27T11:55:53;4.80;;;2.70;;
30934;SDS011;51033;42.648;23.292;2022-08-27T12:00:46;3.60;;;2.40;;
30934;SDS011;51033;42.648;23.292;2022-08-27T12:05:47;6.25;;;2.30;;
30934;SDS011;51033;42.648;23.292;2022-08-27T12:10:56;4.00;;;2.15;;
30934;SDS011;51033;42.648;23.292;2022-08-27T12:27:14;5.30;;;2.28;;
30934;SDS011;51033;42.648;23.292;2022-08-27T12:37:47;3.75;;;2.17;;
30934;SDS011;51033;42.648;23.292;2022-08-27T12:40:18;4.38;;;2.28;;
30934;SDS011;51033;42.648;23.292;2022-08-27T12:42:47;4.68;;;2.83;;
30934;SDS011;51033;42.648;23.292;2022-08-27T12:45:20;3.85;;;2.03;;
30934;SDS011;51033;42.648;23.292;2022-08-27T12:47:49;5.90;;;2.75;;
30934;SDS011;51033;42.648;23.292;2022-08-27T12:50:19;4.35;;;2.65;;
30934;SDS011;51033;42.648;23.292;2022-08-27T12:52:54;7.22;;;2.45;;
30934;SDS011;51033;42.648;23.292;2022-08-27T13:06:24;11.43;;;3.00;;
30934;SDS011;51033;42.648;23.292;2022-08-27T13:08:57;5.28;;;2.00;;
30934;SDS011;51033;42.648;23.292;2022-08-27T13:11:26;5.70;;;2.25;;
30934;SDS011;51033;42.648;23.292;2022-08-27T13:14:10;9.52;;;2.50;;
30934;SDS011;51033;42.648;23.292;2022-08-27T13:16:45;8.25;;;3.13;;
30934;SDS011;51033;42.648;23.292;2022-08-27T13:19:20;5.10;;;2.80;;
30934;SDS011;51033;42.648;23.292;2022-08-27T13:21:55;3.83;;;2.55;;
30934;SDS011;51033;42.648;23.292;2022-08-27T13:24:31;6.78;;;2.70;;
30934;SDS011;51033;42.648;23.292;2022-08-27T13:27:03;7.10;;;2.10;;
30934;SDS011;51033;42.648;23.292;2022-08-27T13:29:29;4.50;;;2.65;;
30934;SDS011;51033;42.648;23.292;2022-08-27T13:31:55;5.20;;;2.38;;
30934;SDS011;51033;42.648;23.292;2022-08-27T13:34:25;5.22;;;2.35;;
30934;SDS011;51033;42.648;23.292;2022-08-27T13:39:22;3.85;;;1.77;;
30934;SDS011;51033;42.648;23.292;2022-08-27T13:41:49;4.57;;;2.20;;
30934;SDS011;51033;42.648;23.292;2022-08-27T13:44:24;5.95;;;2.33;;
30934;SDS011;51033;42.648;23.292;2022-08-27T13:47:01;4.93;;;2.22;;
30934;SDS011;51033;42.648;23.292;2022-08-27T13:49:28;3.58;;;1.95;;
30934;SDS011;51033;42.648;23.292;2022-08-27T13:52:09;4.22;;;2.55;;
30934;SDS011;51033;42.648;23.292;2022-08-27T13:54:43;5.57;;;2.83;;
30934;SDS011;51033;42.648;23.292;2022-08-27T13:57:20;4.03;;;2.50;;
30934;SDS011;51033;42.648;23.292;2022-08-27T13:59:48;4.72;;;2.47;;
30934;SDS011;51033;42.648;23.292;2022-08-27T14:02:17;3.05;;;2.30;;
30934;SDS011;51033;42.648;23.292;2022-08-27T14:07:37;4.50;;;2.08;;
30934;SDS011;51033;42.648;23.292;2022-08-27T14:13:01;3.35;;;2.45;;
30934;SDS011;51033;42.648;23.292;2022-08-27T14:15:32;16.20;;;2.58;;
30934;SDS011;51033;42.648;23.292;2022-08-27T14:17:58;3.65;;;2.28;;
30934;SDS011;51033;42.648;23.292;2022-08-27T14:20:24;4.43;;;2.17;;
30934;SDS011;51033;42.648;23.292;2022-08-27T14:22:50;10.50;;;2.45;;
30934;SDS011;51033;42.648;23.292;2022-08-27T14:25:17;6.00;;;2.10;;
30934;SDS011;51033;42.648;23.292;2022-08-27T14:27:43;5.05;;;2.35;;
30934;SDS011;51033;42.648;23.292;2022-08-27T14:30:11;4.53;;;2.67;;
30934;SDS011;51033;42.648;23.292;2022-08-27T14:32:38;4.82;;;2.40;;
30934;SDS011;51033;42.648;23.292;2022-08-27T14:35:05;3.67;;;1.92;;
30934;SDS011;51033;42.648;23.292;2022-08-27T14:37:32;3.30;;;2.08;;
30934;SDS011;51033;42.648;23.292;2022-08-27T14:39:57;3.15;;;2.00;;
30934;SDS011;51033;42.648;23.292;2022-08-27T14:42:23;5.07;;;3.13;;
30934;SDS011;51033;42.648;23.292;2022-08-27T14:44:48;6.03;;;2.38;;
30934;SDS011;51033;42.648;23.292;2022-08-27T14:47:14;6.88;;;2.45;;
30934;SDS011;51033;42.648;23.292;2022-08-27T14:49:44;3.25;;;1.95;;
30934;SDS011;51033;42.648;23.292;2022-08-27T14:52:11;6.57;;;2.28;;
30934;SDS011;51033;42.648;23.292;2022-08-27T14:54:38;7.53;;;3.35;;
30934;SDS011;51033;42.648;23.292;2022-08-27T14:57:04;3.17;;;2.22;;
30934;SDS011;51033;42.648;23.292;2022-08-27T14:59:32;2.50;;;2.28;;
30934;SDS011;51033;42.648;23.292;2022-08-27T15:01:58;9.32;;;2.10;;
30934;SDS011;51033;42.648;23.292;2022-08-27T15:04:25;7.72;;;3.20;;
30934;SDS011;51033;42.648;23.292;2022-08-27T15:06:51;6.88;;;2.13;;
30934;SDS011;51033;42.648;23.292;2022-08-27T15:09:17;4.35;;;1.98;;
30934;SDS011;51033;42.648;23.292;2022-08-27T15:11:43;4.78;;;2.40;;
30934;SDS011;51033;42.648;23.292;2022-08-27T15:14:14;6.22;;;2.58;;
30934;SDS011;51033;42.648;23.292;2022-08-27T15:16:46;3.17;;;2.10;;
30934;SDS011;51033;42.648;23.292;2022-08-27T15:19:11;6.25;;;2.20;;
30934;SDS011;51033;42.648;23.292;2022-08-27T15:21:39;4.03;;;2.88;;
30934;SDS011;51033;42.648;23.292;2022-08-27T15:24:19;4.25;;;2.08;;
30934;SDS011;51033;42.648;23.292;2022-08-27T15:26:48;6.65;;;2.17;;
30934;SDS011;51033;42.648;23.292;2022-08-27T15:29:15;3.35;;;2.42;;
30934;SDS011;51033;42.648;23.292;2022-08-27T15:31:40;3.58;;;2.05;;
30934;SDS011;51033;42.648;23.292;2022-08-27T15:34:07;5.43;;;2.70;;
30934;SDS011;51033;42.648;23.292;2022-08-27T15:36:33;5.18;;;2.75;;
30934;SDS011;51033;42.648;23.292;2022-08-27T15:38:59;5.10;;;2.17;;
30934;SDS011;51033;42.648;23.292;2022-08-27T15:41:25;3.67;;;2.25;;
30934;SDS011;51033;42.648;23.292;2022-08-27T15:43:50;3.78;;;2.30;;
30934;SDS011;51033;42.648;23.292;2022-08-27T15:46:16;3.58;;;2.20;;
30934;SDS011;51033;42.648;23.292;2022-08-27T15:48:41;3.47;;;2.28;;
30934;SDS011;51033;42.648;23.292;2022-08-27T15:51:08;4.15;;;2.20;;
30934;SDS011;51033;42.648;23.292;2022-08-27T15:53:35;4.22;;;2.20;;
30934;SDS011;51033;42.648;23.292;2022-08-27T15:56:04;3.75;;;2.03;;
30934;SDS011;51033;42.648;23.292;2022-08-27T15:58:32;5.30;;;2.67;;
30934;SDS011;51033;42.648;23.292;2022-08-27T16:01:02;4.88;;;2.55;;
30934;SDS011;51033;42.648;23.292;2022-08-27T16:03:36;5.53;;;2.83;;
30934;SDS011;51033;42.648;23.292;2022-08-27T16:06:03;5.57;;;1.83;;
30934;SDS011;51033;42.648;23.292;2022-08-27T16:08:29;2.85;;;2.15;;
30934;SDS011;51033;42.648;23.292;2022-08-27T16:10:55;5.95;;;2.30;;
30934;SDS011;51033;42.648;23.292;2022-08-27T16:13:21;3.55;;;1.95;;
30934;SDS011;51033;42.648;23.292;2022-08-27T16:15:48;2.33;;;1.88;;
30934;SDS011;51033;42.648;23.292;2022-08-27T16:18:13;11.40;;;3.03;;
30934;SDS011;51033;42.648;23.292;2022-08-27T16:20:39;2.72;;;1.85;;
30934;SDS011;51033;42.648;23.292;2022-08-27T16:23:06;4.75;;;2.00;;
30934;SDS011;51033;42.648;23.292;2022-08-27T16:25:32;4.45;;;2.55;;
30934;SDS011;51033;42.648;23.292;2022-08-27T16:27:57;3.55;;;2.10;;
30934;SDS011;51033;42.648;23.292;2022-08-27T16:30:25;4.13;;;2.38;;
30934;SDS011;51033;42.648;23.292;2022-08-27T16:32:50;7.50;;;2.00;;
30934;SDS011;51033;42.648;23.292;2022-08-27T16:35:16;2.92;;;1.80;;
30934;SDS011;51033;42.648;23.292;2022-08-27T16:37:43;4.55;;;2.40;;